createdAt,value
2022-08-11T00:02:38.892Z,2.90
2022-08-11T00:05:07.375Z,2.85
2022-08-11T00:07:41.057Z,2.80
2022-08-11T00:10:11.834Z,2.92
2022-08-11T00:12:39.083Z,3.15
2022-08-11T00:15:06.910Z,2.97
2022-08-11T00:17:34.700Z,3.08
2022-08-11T00:20:11.836Z,3.15
2022-08-11T00:22:45.500Z,2.60
2022-08-11T00:25:19.112Z,3.10
2022-08-11T00:27:47.343Z,2.72
2022-08-11T00:30:16.058Z,2.78
2022-08-11T00:32:54.683Z,3.00
2022-08-11T00:35:51.480Z,3.30
2022-08-11T00:38:14.141Z,3.05
2022-08-11T00:40:53.590Z,3.13
2022-08-11T00:43:52.190Z,2.83
2022-08-11T00:46:42.307Z,2.85
2022-08-11T00:49:21.806Z,3.58
2022-08-11T00:52:14.928Z,3.33
2022-08-11T00:55:00.262Z,2.80
2022-08-11T00:57:56.930Z,2.75
2022-08-11T01:00:27.039Z,2.97
2022-08-11T01:03:18.888Z,3.55
2022-08-11T01:06:17.341Z,2.95
2022-08-11T01:09:06.676Z,3.65
2022-08-11T01:11:38.983Z,3.83
2022-08-11T01:15:10.582Z,4.68
2022-08-11T01:18:10.975Z,4.47
2022-08-11T01:21:02.065Z,1.65
2022-08-11T01:23:47.305Z,1.73
2022-08-11T01:26:54.773Z,1.67
2022-08-11T01:29:58.580Z,2.13
2022-08-11T01:32:50.016Z,1.90
2022-08-11T01:36:13.771Z,2.15
2022-08-11T01:38:45.863Z,1.92
2022-08-11T01:41:21.310Z,1.80
2022-08-11T01:44:12.862Z,1.73
2022-08-11T01:46:48.167Z,2.05
2022-08-11T01:50:08.402Z,2.20
2022-08-11T01:52:30.989Z,1.83
2022-08-11T01:55:25.033Z,1.98
2022-08-11T01:58:05.276Z,1.98
2022-08-11T02:00:46.356Z,2.08
2022-08-11T02:03:24.158Z,1.55
2022-08-11T02:06:30.032Z,1.85
2022-08-11T02:09:05.970Z,2.80
2022-08-11T02:11:37.565Z,1.38
2022-08-11T02:14:22.961Z,1.67
2022-08-11T02:17:08.189Z,1.92
2022-08-11T02:20:25.765Z,2.10
2022-08-11T02:24:03.742Z,1.73
2022-08-11T02:28:58.284Z,1.40
2022-08-11T02:32:23.797Z,1.70
2022-08-11T02:34:59.973Z,1.58
2022-08-11T02:37:33.357Z,2.28
2022-08-11T02:40:06.165Z,2.40
2022-08-11T02:42:46.848Z,1.58
2022-08-11T02:45:48.108Z,1.73
2022-08-11T02:48:57.209Z,1.75
2022-08-11T02:51:37.316Z,2.08
2022-08-11T02:54:27.135Z,1.98
2022-08-11T02:57:15.446Z,1.85
2022-08-11T03:00:11.951Z,2.08
2022-08-11T03:02:54.794Z,1.95
2022-08-11T03:05:56.551Z,1.55
2022-08-11T03:08:40.959Z,2.20
2022-08-11T03:11:30.733Z,1.90
2022-08-11T03:14:35.448Z,2.53
2022-08-11T03:17:23.612Z,1.85
2022-08-11T03:20:05.765Z,2.72
2022-08-11T03:22:57.629Z,2.17
2022-08-11T03:25:58.721Z,1.75
2022-08-11T03:28:50.415Z,2.13
2022-08-11T03:31:35.946Z,1.52
2022-08-11T03:34:22.962Z,3.08
2022-08-11T03:37:40.489Z,2.30
2022-08-11T03:40:07.370Z,1.80
2022-08-11T03:42:47.344Z,2.70
2022-08-11T03:45:40.754Z,2.00
2022-08-11T03:48:54.504Z,2.40
2022-08-11T03:51:51.899Z,3.15
2022-08-11T03:54:53.028Z,2.30
2022-08-11T03:57:47.817Z,2.33
2022-08-11T04:00:29.787Z,2.60
2022-08-11T04:03:14.647Z,2.08
2022-08-11T04:06:08.478Z,2.80
2022-08-11T04:08:50.296Z,2.00
2022-08-11T04:11:32.044Z,2.33
2022-08-11T04:15:00.602Z,2.33
2022-08-11T04:17:57.750Z,2.28
2022-08-11T04:20:44.218Z,2.03
2022-08-11T04:24:36.333Z,1.67
2022-08-11T04:27:04.904Z,2.42
2022-08-11T04:30:12.132Z,1.92
2022-08-11T04:33:16.444Z,2.33
2022-08-11T04:35:55.501Z,2.33
2022-08-11T04:38:58.627Z,2.42
2022-08-11T04:42:12.331Z,2.15
2022-08-11T04:44:45.061Z,2.70
2022-08-11T04:48:04.905Z,2.08
2022-08-11T04:51:16.917Z,2.00
2022-08-11T04:54:36.964Z,2.17
2022-08-11T04:57:53.136Z,1.55
2022-08-11T05:00:38.598Z,2.03
2022-08-11T05:03:23.726Z,2.20
2022-08-11T05:06:32.821Z,1.90
2022-08-11T05:09:21.145Z,2.20
2022-08-11T05:12:01.603Z,2.50
2022-08-11T05:14:54.310Z,2.30
2022-08-11T05:18:00.435Z,1.95
2022-08-11T05:20:47.962Z,1.98
2022-08-11T05:23:35.430Z,2.30
2022-08-11T05:26:47.077Z,2.28
2022-08-11T05:29:47.205Z,2.25
2022-08-11T05:32:35.505Z,1.85
2022-08-11T05:35:05.036Z,2.67
2022-08-11T05:37:34.697Z,1.67
2022-08-11T05:40:29.992Z,2.13
2022-08-11T05:43:20.602Z,1.83
2022-08-11T05:46:17.600Z,1.90
2022-08-11T05:49:03.499Z,1.92
2022-08-11T05:52:16.636Z,2.63
2022-08-11T05:55:06.247Z,1.88
2022-08-11T05:57:49.501Z,2.30
2022-08-11T06:00:20.178Z,2.30
2022-08-11T06:02:59.137Z,3.22
2022-08-11T06:05:43.343Z,2.10
2022-08-11T06:08:13.317Z,2.40
2022-08-11T06:10:43.736Z,2.47
2022-08-11T06:13:15.932Z,2.05
2022-08-11T06:15:50.722Z,2.00
2022-08-11T06:18:18.234Z,2.47
2022-08-11T06:20:50.892Z,1.90
2022-08-11T06:23:19.449Z,2.25
2022-08-11T06:25:47.102Z,2.50
2022-08-11T06:28:20.596Z,3.15
2022-08-11T06:33:43.769Z,2.22
2022-08-11T06:36:13.271Z,2.05
2022-08-11T06:38:51.844Z,1.92
2022-08-11T06:41:30.415Z,1.63
2022-08-11T06:44:12.980Z,1.92
2022-08-11T06:46:42.149Z,2.22
2022-08-11T06:49:30.992Z,1.90
2022-08-11T06:52:34.536Z,2.15
2022-08-11T06:55:07.096Z,2.55
2022-08-11T06:57:55.363Z,2.08
2022-08-11T07:00:28.805Z,2.03
2022-08-11T07:03:09.095Z,2.88
2022-08-11T07:05:43.766Z,1.85
2022-08-11T07:09:03.353Z,1.88
2022-08-11T07:12:07.889Z,1.88
2022-08-11T07:14:54.153Z,2.28
2022-08-11T07:17:28.606Z,2.55
2022-08-11T07:20:20.122Z,1.88
2022-08-11T07:23:13.589Z,2.28
2022-08-11T07:26:02.098Z,2.30
2022-08-11T07:28:49.064Z,1.88
2022-08-11T07:31:31.434Z,1.83
2022-08-11T07:34:22.463Z,2.67
2022-08-11T07:37:00.209Z,2.30
2022-08-11T07:39:28.994Z,2.63
2022-08-11T07:41:58.263Z,2.65
2022-08-11T07:44:34.293Z,1.88
2022-08-11T07:47:21.159Z,2.22
2022-08-11T07:50:08.032Z,2.47
2022-08-11T07:52:38.167Z,2.53
2022-08-11T07:55:10.361Z,1.90
2022-08-11T07:58:16.955Z,1.95
2022-08-11T08:01:10.171Z,1.63
2022-08-11T08:03:56.922Z,1.88
2022-08-11T08:06:42.821Z,2.00
2022-08-11T08:09:29.488Z,2.53
2022-08-11T08:12:16.403Z,1.83
2022-08-11T08:15:02.351Z,1.88
2022-08-11T08:18:08.278Z,2.38
2022-08-11T08:20:38.607Z,2.05
2022-08-11T08:23:06.100Z,1.85
2022-08-11T08:25:34.432Z,1.70
2022-08-11T08:28:03.261Z,1.58
2022-08-11T08:30:50.558Z,2.03
2022-08-11T08:33:31.177Z,2.40
2022-08-11T08:36:12.509Z,2.15
2022-08-11T08:38:40.895Z,2.22
2022-08-11T08:41:08.656Z,2.20
2022-08-11T08:43:47.613Z,1.88
2022-08-11T08:46:16.910Z,2.03
2022-08-11T08:48:45.119Z,2.00
2022-08-11T08:52:01.643Z,2.05
2022-08-11T08:54:20.871Z,2.13
2022-08-11T08:56:49.603Z,2.10
2022-08-11T08:59:17.584Z,1.77
2022-08-11T09:01:47.802Z,1.95
2022-08-11T09:04:20.329Z,2.17
2022-08-11T09:06:52.307Z,1.70
2022-08-11T09:09:20.922Z,1.48
2022-08-11T09:11:53.145Z,2.00
2022-08-11T09:14:53.953Z,2.40
2022-08-11T09:17:22.250Z,2.60
2022-08-11T09:19:54.136Z,2.50
2022-08-11T09:22:42.610Z,1.88
2022-08-11T09:25:28.527Z,1.95
2022-08-11T09:27:56.547Z,1.55
2022-08-11T09:30:27.718Z,2.00
2022-08-11T09:33:00.338Z,2.03
2022-08-11T09:35:28.293Z,1.65
2022-08-11T09:38:15.096Z,2.17
2022-08-11T09:40:44.659Z,2.25
2022-08-11T09:43:32.665Z,1.85
2022-08-11T09:46:00.363Z,1.70
2022-08-11T09:48:29.914Z,2.25
2022-08-11T09:50:59.414Z,1.58
2022-08-11T09:53:36.743Z,1.85
2022-08-11T09:56:29.674Z,2.05
2022-08-11T09:58:56.880Z,1.70
2022-08-11T10:01:28.294Z,1.70
2022-08-11T10:04:04.205Z,2.22
2022-08-11T10:06:54.076Z,2.22
2022-08-11T10:09:24.223Z,2.00
2022-08-11T10:11:55.485Z,1.90
2022-08-11T10:14:44.876Z,1.38
2022-08-11T10:17:13.943Z,1.33
2022-08-11T10:19:42.788Z,1.90
2022-08-11T10:22:28.704Z,1.55
2022-08-11T10:25:19.831Z,1.40
2022-08-11T10:28:17.851Z,1.60
2022-08-11T10:31:00.502Z,1.55
2022-08-11T10:33:59.353Z,1.25
2022-08-11T10:36:31.777Z,1.77
2022-08-11T10:39:00.085Z,1.40
2022-08-11T10:42:06.679Z,1.50
2022-08-11T10:44:41.808Z,1.83
2022-08-11T10:47:29.934Z,1.15
2022-08-11T10:50:16.261Z,1.33
2022-08-11T10:53:02.595Z,1.30
2022-08-11T10:55:49.168Z,1.50
2022-08-11T10:58:35.418Z,1.70
2022-08-11T11:01:03.307Z,1.73
2022-08-11T11:03:32.138Z,1.77
2022-08-11T11:06:27.525Z,1.63
2022-08-11T11:08:53.041Z,1.55
2022-08-11T11:11:21.380Z,1.75
2022-08-11T11:14:09.416Z,1.60
2022-08-11T11:16:50.117Z,1.63
2022-08-11T11:19:19.192Z,1.85
2022-08-11T11:21:46.519Z,1.50
2022-08-11T11:24:52.210Z,1.85
2022-08-11T11:27:28.033Z,1.73
2022-08-11T11:30:08.913Z,2.00
2022-08-11T11:32:35.974Z,1.40
2022-08-11T11:35:15.350Z,1.73
2022-08-11T11:38:03.488Z,1.77
2022-08-11T11:40:31.880Z,2.13
2022-08-11T11:43:00.228Z,1.70
2022-08-11T11:45:27.547Z,1.23
2022-08-11T11:47:55.846Z,2.30
2022-08-11T11:50:44.087Z,1.35
2022-08-11T11:53:12.232Z,1.10
2022-08-11T11:55:39.561Z,1.15
2022-08-11T11:58:26.013Z,1.77
2022-08-11T12:01:12.152Z,1.30
2022-08-11T12:03:40.209Z,2.28
2022-08-11T12:06:08.621Z,1.60
2022-08-11T12:08:36.274Z,2.15
2022-08-11T12:11:23.132Z,1.67
2022-08-11T12:13:51.124Z,1.30
2022-08-11T12:16:34.221Z,1.40
2022-08-11T12:19:04.931Z,1.35
2022-08-11T12:21:32.828Z,1.48
2022-08-11T12:24:20.067Z,1.20
2022-08-11T12:27:16.028Z,2.08
2022-08-11T12:29:45.181Z,1.38
2022-08-11T12:32:12.602Z,1.70
2022-08-11T12:34:39.801Z,1.63
2022-08-11T12:37:13.058Z,1.05
2022-08-11T12:40:16.220Z,1.23
2022-08-11T12:43:21.892Z,1.25
2022-08-11T12:45:51.834Z,1.33
2022-08-11T12:48:59.616Z,1.42
2022-08-11T12:52:14.046Z,1.08
2022-08-11T12:54:40.686Z,1.10
2022-08-11T12:57:36.442Z,1.40
2022-08-11T13:00:24.707Z,1.30
2022-08-11T13:03:10.680Z,1.20
2022-08-11T13:05:44.265Z,1.58
2022-08-11T13:08:13.794Z,1.52
2022-08-11T13:11:00.412Z,1.40
2022-08-11T13:13:55.837Z,1.30
2022-08-11T13:16:15.024Z,1.48
2022-08-11T13:18:42.885Z,1.17
2022-08-11T13:21:20.725Z,1.40
2022-08-11T13:24:01.507Z,1.50
2022-08-11T13:26:47.467Z,1.40
2022-08-11T13:29:25.234Z,1.40
2022-08-11T13:31:54.534Z,1.35
2022-08-11T13:34:24.004Z,1.70
2022-08-11T13:36:53.160Z,1.60
2022-08-11T13:39:26.793Z,1.67
2022-08-11T13:44:25.886Z,1.25
2022-08-11T13:46:59.257Z,1.48
2022-08-11T13:49:26.688Z,1.83
2022-08-11T13:51:55.173Z,1.10
2022-08-11T13:54:25.322Z,1.08
2022-08-11T13:56:57.242Z,1.15
2022-08-11T13:59:30.022Z,1.25
2022-08-11T14:02:21.631Z,1.25
2022-08-11T14:04:56.099Z,1.25
2022-08-11T14:07:27.531Z,1.33
2022-08-11T14:09:59.168Z,1.00
2022-08-11T14:12:50.768Z,1.58
2022-08-11T14:15:25.137Z,1.40
2022-08-11T14:18:01.666Z,1.60
2022-08-11T14:20:50.794Z,1.10
2022-08-11T14:23:20.452Z,1.27
2022-08-11T14:26:06.626Z,1.90
2022-08-11T14:28:41.562Z,1.40
2022-08-11T14:31:14.409Z,1.38
2022-08-11T14:34:00.722Z,1.92
2022-08-11T14:36:39.105Z,1.40
2022-08-11T14:39:12.525Z,1.60
2022-08-11T14:45:17.947Z,1.45
2022-08-11T14:47:49.924Z,1.48
2022-08-11T14:50:23.862Z,1.85
2022-08-11T14:52:56.852Z,1.27
2022-08-11T14:55:45.278Z,1.58
2022-08-11T14:58:16.004Z,1.35
2022-08-11T15:00:43.642Z,1.48
2022-08-11T15:03:13.923Z,1.60
2022-08-11T15:06:02.062Z,1.33
2022-08-11T15:08:57.128Z,1.50
2022-08-11T15:11:47.318Z,1.13
2022-08-11T15:14:14.702Z,1.30
2022-08-11T15:17:02.257Z,1.45
2022-08-11T15:19:40.313Z,1.30
2022-08-11T15:22:28.458Z,1.08
2022-08-11T15:24:57.021Z,1.48
2022-08-11T15:27:43.178Z,1.30
2022-08-11T15:30:33.716Z,1.38
2022-08-11T15:33:30.657Z,1.10
2022-08-11T15:36:16.552Z,1.48
2022-08-11T15:38:54.880Z,1.30
2022-08-11T15:41:56.417Z,0.98
2022-08-11T15:45:02.844Z,1.33
2022-08-11T15:47:41.808Z,1.58
2022-08-11T15:50:14.098Z,1.77
2022-08-11T15:52:53.503Z,1.40
2022-08-11T15:55:23.753Z,1.48
2022-08-11T15:58:12.285Z,1.20
2022-08-11T16:01:04.266Z,1.50
2022-08-11T16:04:08.910Z,1.10
2022-08-11T16:06:58.134Z,1.55
2022-08-11T16:09:41.333Z,1.58
2022-08-11T16:12:18.874Z,1.33
2022-08-11T16:15:11.269Z,1.42
2022-08-11T16:17:44.270Z,1.10
2022-08-11T16:20:14.193Z,1.70
2022-08-11T16:23:00.267Z,1.35
2022-08-11T16:27:02.420Z,1.38
2022-08-11T16:28:21.979Z,1.30
2022-08-11T16:30:49.794Z,1.15
2022-08-11T16:33:48.772Z,1.38
2022-08-11T16:36:24.607Z,1.35
2022-08-11T16:38:52.916Z,1.38
2022-08-11T16:41:41.442Z,1.27
2022-08-11T16:44:37.229Z,1.10
2022-08-11T16:47:07.068Z,1.40
2022-08-11T16:49:36.656Z,1.25
2022-08-11T16:52:07.938Z,1.80
2022-08-11T16:54:35.859Z,1.42
2022-08-11T16:57:47.639Z,1.90
2022-08-11T17:00:17.128Z,1.42
2022-08-11T17:03:11.646Z,1.65
2022-08-11T17:06:11.904Z,0.95
2022-08-11T17:09:07.011Z,1.20
2022-08-11T17:12:01.171Z,1.30
2022-08-11T17:17:26.051Z,1.10
2022-08-11T17:20:41.171Z,1.40
2022-08-11T17:23:02.624Z,1.10
2022-08-11T17:25:32.263Z,1.50
2022-08-11T17:28:20.373Z,1.00
2022-08-11T17:31:22.343Z,1.27
2022-08-11T17:34:10.021Z,1.50
2022-08-11T17:36:41.604Z,2.90
2022-08-11T17:39:15.242Z,1.67
2022-08-11T17:42:02.036Z,1.52
2022-08-11T17:44:49.015Z,1.02
2022-08-11T17:47:36.564Z,1.70
2022-08-11T17:50:17.188Z,1.23
2022-08-11T17:53:05.437Z,1.20
2022-08-11T17:55:53.708Z,1.08
2022-08-11T17:58:39.913Z,1.10
2022-08-11T18:01:10.804Z,1.35
2022-08-11T18:03:40.534Z,0.95
2022-08-11T18:06:12.574Z,1.25
2022-08-11T18:09:02.209Z,0.98
2022-08-11T18:12:09.840Z,1.00
2022-08-11T18:14:57.961Z,0.95
2022-08-11T18:17:43.459Z,1.20
2022-08-11T18:20:28.968Z,0.73
2022-08-11T18:23:14.893Z,1.10
2022-08-11T18:26:06.376Z,1.25
2022-08-11T18:29:01.573Z,1.40
2022-08-11T18:31:51.722Z,1.50
2022-08-11T18:34:43.240Z,1.15
2022-08-11T18:37:49.477Z,1.10
2022-08-11T18:40:47.247Z,1.15
2022-08-11T18:43:34.716Z,1.10
2022-08-11T18:46:25.320Z,1.45
2022-08-11T18:50:01.490Z,1.10
2022-08-11T18:52:36.064Z,1.00
2022-08-11T18:55:24.281Z,1.33
2022-08-11T18:58:12.222Z,1.30
2022-08-11T19:00:59.340Z,1.23
2022-08-11T19:03:49.348Z,1.00
2022-08-11T19:06:41.017Z,1.40
2022-08-11T19:09:32.485Z,1.55
2022-08-11T19:12:18.907Z,2.47
2022-08-11T19:15:06.840Z,3.55
2022-08-11T19:17:54.821Z,2.47
2022-08-11T19:20:43.996Z,2.65
2022-08-11T19:23:31.406Z,2.10
2022-08-11T19:26:18.378Z,1.95
2022-08-11T19:29:07.425Z,1.77
2022-08-11T19:31:54.520Z,2.10
2022-08-11T19:34:42.846Z,1.30
2022-08-11T19:37:30.185Z,2.22
2022-08-11T19:40:24.710Z,2.28
2022-08-11T19:46:17.413Z,2.45
2022-08-11T19:49:04.832Z,2.03
2022-08-11T19:51:54.092Z,1.92
2022-08-11T19:54:43.155Z,2.00
2022-08-11T19:57:29.332Z,2.30
2022-08-11T20:00:15.273Z,1.77
2022-08-11T20:03:00.869Z,2.60
2022-08-11T20:05:55.545Z,1.80
2022-08-11T20:08:47.827Z,2.30
2022-08-11T20:11:33.882Z,2.17
2022-08-11T20:14:20.917Z,1.67
2022-08-11T20:17:06.418Z,1.88
2022-08-11T20:19:57.547Z,2.60
2022-08-11T20:22:46.758Z,2.00
2022-08-11T20:25:40.259Z,1.75
2022-08-11T20:28:26.657Z,1.70
2022-08-11T20:31:12.804Z,1.95
2022-08-11T20:33:59.814Z,1.80
2022-08-11T20:36:49.929Z,2.10
2022-08-11T20:39:41.879Z,2.30
2022-08-11T20:42:30.685Z,2.20
2022-08-11T20:45:17.856Z,2.67
2022-08-11T20:48:14.694Z,2.63
2022-08-11T20:51:06.291Z,2.05
2022-08-11T20:54:00.029Z,2.40
2022-08-11T20:56:53.788Z,2.13
2022-08-11T20:59:56.921Z,1.75
2022-08-11T21:02:44.762Z,2.28
2022-08-11T21:06:10.031Z,2.10
2022-08-11T21:08:39.039Z,1.77
2022-08-11T21:11:28.535Z,1.95
2022-08-11T21:14:14.425Z,2.05
2022-08-11T21:17:00.464Z,2.13
2022-08-11T21:20:06.576Z,1.67
2022-08-11T21:23:05.479Z,1.98
2022-08-11T21:26:01.222Z,1.50
2022-08-11T21:28:49.536Z,1.83
2022-08-11T21:31:36.459Z,1.88
2022-08-11T21:34:23.453Z,1.73
2022-08-11T21:37:10.641Z,1.80
2022-08-11T21:39:56.749Z,1.80
2022-08-11T21:42:43.831Z,2.03
2022-08-11T21:45:29.899Z,2.20
2022-08-11T21:48:15.690Z,2.20
2022-08-11T21:51:01.250Z,1.48
2022-08-11T21:53:47.089Z,1.80
2022-08-11T21:56:33.476Z,2.35
2022-08-11T21:59:20.365Z,2.05
2022-08-11T22:02:12.409Z,2.08
2022-08-11T22:04:58.793Z,2.10
2022-08-11T22:07:44.337Z,1.70
2022-08-11T22:10:41.959Z,1.92
2022-08-11T22:13:32.420Z,2.38
2022-08-11T22:16:18.300Z,2.47
2022-08-11T22:19:05.708Z,1.98
2022-08-11T22:21:56.976Z,1.92
2022-08-11T22:24:51.354Z,2.30
2022-08-11T22:27:37.281Z,1.67
2022-08-11T22:30:25.181Z,1.70
2022-08-11T22:33:11.767Z,1.90
2022-08-11T22:36:01.699Z,1.70
2022-08-11T22:38:47.650Z,2.10
2022-08-11T22:41:33.197Z,1.95
2022-08-11T22:44:18.555Z,1.45
2022-08-11T22:47:05.226Z,2.03
2022-08-11T22:49:57.462Z,2.50
2022-08-11T22:52:45.353Z,2.33
2022-08-11T22:55:31.774Z,2.45
2022-08-11T22:58:17.545Z,2.30
2022-08-11T23:01:03.281Z,2.42
2022-08-11T23:25:50.919Z,2.00
2022-08-11T23:28:37.156Z,1.83
2022-08-11T23:31:22.492Z,2.05
2022-08-11T23:34:43.483Z,1.70
2022-08-11T23:37:17.030Z,2.38
2022-08-11T23:40:02.361Z,1.80
2022-08-11T23:42:47.749Z,2.13
2022-08-11T23:45:33.748Z,2.22
2022-08-11T23:48:20.636Z,1.80
2022-08-11T23:51:06.623Z,2.33
2022-08-11T23:53:52.389Z,2.25
2022-08-11T23:56:37.984Z,2.30
2022-08-11T23:59:23.344Z,2.20
